createdAt,value
2018-03-29T00:02:14.497Z,99.90
2018-03-29T00:04:42.756Z,99.90
2018-03-29T00:07:11.009Z,99.90
2018-03-29T00:09:39.292Z,99.90
2018-03-29T00:12:07.542Z,99.90
2018-03-29T00:14:35.794Z,99.90
2018-03-29T00:17:04.825Z,99.90
2018-03-29T00:19:33.089Z,99.90
2018-03-29T00:22:01.360Z,99.70
2018-03-29T00:24:29.618Z,99.30
2018-03-29T00:26:58.627Z,99.60
2018-03-29T00:29:26.895Z,99.60
2018-03-29T00:31:55.147Z,99.00
2018-03-29T00:34:24.166Z,99.10
2018-03-29T00:36:52.414Z,99.00
2018-03-29T00:39:21.453Z,99.30
2018-03-29T00:41:49.718Z,99.30
2018-03-29T00:44:17.965Z,99.60
2018-03-29T00:46:46.980Z,99.50
2018-03-29T00:49:15.253Z,99.50
2018-03-29T00:51:44.257Z,99.90
2018-03-29T00:54:12.523Z,99.90
2018-03-29T00:56:40.768Z,99.50
2018-03-29T00:59:09.029Z,99.20
2018-03-29T01:01:37.281Z,99.00
2018-03-29T01:04:05.551Z,99.40
2018-03-29T01:06:33.803Z,99.20
2018-03-29T01:09:02.062Z,98.90
2018-03-29T01:11:31.083Z,98.60
2018-03-29T01:13:59.346Z,98.60
2018-03-29T01:16:28.366Z,98.50
2018-03-29T01:18:56.613Z,98.50
2018-03-29T01:21:24.865Z,98.20
2018-03-29T01:23:53.105Z,98.20
2018-03-29T01:26:21.353Z,98.40
2018-03-29T01:28:49.619Z,98.00
2018-03-29T01:31:17.955Z,97.90
2018-03-29T01:33:47.720Z,98.10
2018-03-29T01:36:15.971Z,98.10
2018-03-29T01:38:44.996Z,97.90
2018-03-29T01:41:13.252Z,97.90
2018-03-29T01:43:41.508Z,98.40
2018-03-29T01:46:10.527Z,99.30
2018-03-29T01:48:38.779Z,99.30
2018-03-29T01:51:07.794Z,99.90
2018-03-29T01:53:36.062Z,99.90
2018-03-29T01:56:04.316Z,99.90
2018-03-29T01:58:32.565Z,99.90
2018-03-29T02:01:00.861Z,99.90
2018-03-29T02:03:29.067Z,99.90
2018-03-29T02:05:57.375Z,99.90
2018-03-29T02:08:25.634Z,99.90
2018-03-29T02:10:53.942Z,99.90
2018-03-29T02:13:22.187Z,99.90
2018-03-29T02:15:50.445Z,99.90
2018-03-29T02:18:19.474Z,99.90
2018-03-29T02:20:47.729Z,99.90
2018-03-29T02:23:15.986Z,99.90
2018-03-29T02:25:44.293Z,99.90
2018-03-29T02:28:12.553Z,99.90
2018-03-29T02:30:40.894Z,99.90
2018-03-29T02:33:10.668Z,99.90
2018-03-29T02:35:38.934Z,99.90
2018-03-29T02:38:07.228Z,99.90
2018-03-29T02:40:35.572Z,99.90
2018-03-29T02:43:03.816Z,99.90
2018-03-29T02:45:32.074Z,99.90
2018-03-29T02:48:00.337Z,99.90
2018-03-29T02:50:28.591Z,99.90
2018-03-29T02:52:57.915Z,99.90
2018-03-29T02:55:26.174Z,99.90
2018-03-29T02:57:54.430Z,99.90
2018-03-29T03:00:22.682Z,99.90
2018-03-29T03:02:51.710Z,99.90
2018-03-29T03:05:19.974Z,99.90
2018-03-29T03:07:48.229Z,99.90
2018-03-29T03:10:17.305Z,99.90
2018-03-29T03:12:47.059Z,99.90
2018-03-29T03:15:15.359Z,99.90
2018-03-29T03:17:43.608Z,99.90
2018-03-29T03:20:11.858Z,99.90
2018-03-29T03:22:40.901Z,99.90
2018-03-29T03:25:09.167Z,99.90
2018-03-29T03:27:37.468Z,99.90
2018-03-29T03:30:05.762Z,99.90
2018-03-29T03:32:35.525Z,99.90
2018-03-29T03:35:03.787Z,99.90
2018-03-29T03:37:32.042Z,99.90
2018-03-29T03:40:01.074Z,99.90
2018-03-29T03:42:29.338Z,99.90
2018-03-29T03:44:57.609Z,99.90
2018-03-29T03:47:25.860Z,99.90
2018-03-29T03:49:54.896Z,99.90
2018-03-29T03:52:23.149Z,99.90
2018-03-29T03:54:51.412Z,99.90
2018-03-29T03:57:20.436Z,99.90
2018-03-29T03:59:48.735Z,99.90
2018-03-29T04:02:17.146Z,99.90
2018-03-29T04:04:45.390Z,99.90
2018-03-29T04:07:13.651Z,99.90
2018-03-29T04:09:41.914Z,99.90
2018-03-29T04:12:10.163Z,99.90
2018-03-29T04:14:39.305Z,99.90
2018-03-29T04:17:07.604Z,99.90
2018-03-29T04:19:35.857Z,99.90
2018-03-29T04:22:04.120Z,99.90
2018-03-29T04:24:32.371Z,99.90
2018-03-29T04:27:01.500Z,99.90
2018-03-29T04:29:30.289Z,99.90
2018-03-29T04:31:58.601Z,99.90
2018-03-29T04:34:28.382Z,99.90
2018-03-29T04:36:56.626Z,99.90
2018-03-29T04:39:25.702Z,99.90
2018-03-29T04:41:54.731Z,99.90
2018-03-29T04:44:22.986Z,99.90
2018-03-29T04:46:52.038Z,99.90
2018-03-29T04:49:20.283Z,99.90
2018-03-29T04:51:48.558Z,99.90
2018-03-29T04:54:16.829Z,99.90
2018-03-29T04:56:45.137Z,99.90
2018-03-29T04:59:13.392Z,99.90
2018-03-29T05:01:41.663Z,99.90
2018-03-29T05:04:09.936Z,99.90
2018-03-29T05:06:38.232Z,99.90
2018-03-29T05:09:06.501Z,99.90
2018-03-29T05:11:34.801Z,99.90
2018-03-29T05:14:03.095Z,99.90
2018-03-29T05:16:31.370Z,99.90
2018-03-29T05:18:59.645Z,99.90
2018-03-29T05:21:27.911Z,99.90
2018-03-29T05:23:56.168Z,99.90
2018-03-29T05:26:24.445Z,99.90
2018-03-29T05:28:53.474Z,99.90
2018-03-29T05:31:21.815Z,99.90
2018-03-29T05:33:50.087Z,99.90
2018-03-29T05:36:18.348Z,99.90
2018-03-29T05:38:46.666Z,99.90
2018-03-29T05:41:14.936Z,99.90
2018-03-29T05:43:43.196Z,99.90
2018-03-29T05:46:11.495Z,99.90
2018-03-29T05:48:39.758Z,99.90
2018-03-29T05:51:08.025Z,99.90
2018-03-29T05:53:36.311Z,99.90
2018-03-29T05:56:04.638Z,99.90
2018-03-29T05:58:33.706Z,99.90
2018-03-29T06:01:03.502Z,99.90
2018-03-29T06:03:31.765Z,99.90
2018-03-29T06:06:00.052Z,99.90
2018-03-29T06:08:28.419Z,99.90
2018-03-29T06:10:56.702Z,99.90
2018-03-29T06:13:24.978Z,99.90
2018-03-29T06:15:58.861Z,99.90
2018-03-29T06:18:33.008Z,99.90
2018-03-29T06:21:01.276Z,99.90
2018-03-29T06:23:29.980Z,99.90
2018-03-29T06:25:58.295Z,99.90
2018-03-29T06:28:27.397Z,99.40
2018-03-29T06:30:56.432Z,99.60
2018-03-29T06:33:24.782Z,99.60
2018-03-29T06:35:53.065Z,99.50
2018-03-29T06:38:21.327Z,99.70
2018-03-29T06:40:49.626Z,99.40
2018-03-29T06:43:17.895Z,99.50
2018-03-29T06:45:46.160Z,99.40
2018-03-29T06:48:14.458Z,99.20
2018-03-29T06:50:42.743Z,99.80
2018-03-29T06:53:11.088Z,98.60
2018-03-29T06:55:39.373Z,99.30
2018-03-29T06:58:07.773Z,98.60
2018-03-29T07:00:36.066Z,98.80
2018-03-29T07:03:04.321Z,98.00
2018-03-29T07:05:32.629Z,98.00
2018-03-29T07:08:00.895Z,97.60
2018-03-29T07:10:29.451Z,98.60
2018-03-29T07:12:57.993Z,97.40
2018-03-29T07:15:27.134Z,97.70
2018-03-29T07:17:55.385Z,97.70
2018-03-29T07:20:23.641Z,97.90
2018-03-29T07:22:52.697Z,97.90
2018-03-29T07:25:20.964Z,97.90
2018-03-29T07:27:49.216Z,98.70
2018-03-29T07:30:17.476Z,98.10
2018-03-29T07:32:45.787Z,97.50
2018-03-29T07:35:14.047Z,97.80
2018-03-29T07:37:42.445Z,98.20
2018-03-29T07:40:10.716Z,97.70
2018-03-29T07:42:38.993Z,97.10
2018-03-29T07:45:07.294Z,97.10
2018-03-29T07:47:35.593Z,97.30
2018-03-29T07:50:04.647Z,96.70
2018-03-29T07:52:33.019Z,96.70
2018-03-29T07:55:01.325Z,96.60
2018-03-29T07:57:29.624Z,96.00
2018-03-29T07:59:58.654Z,96.20
2018-03-29T08:02:27.010Z,96.20
2018-03-29T08:04:55.274Z,95.80
2018-03-29T08:07:24.301Z,95.90
2018-03-29T08:09:52.605Z,95.80
2018-03-29T08:12:20.906Z,96.00
2018-03-29T08:14:49.937Z,96.30
2018-03-29T08:17:18.204Z,96.00
2018-03-29T08:19:46.488Z,96.10
2018-03-29T08:22:14.907Z,95.70
2018-03-29T08:24:43.281Z,95.20
2018-03-29T08:27:11.533Z,95.80
2018-03-29T08:29:39.805Z,95.80
2018-03-29T08:32:08.081Z,95.90
2018-03-29T08:34:36.374Z,96.00
2018-03-29T08:37:04.684Z,95.50
2018-03-29T08:39:32.984Z,95.70
2018-03-29T08:42:01.272Z,95.60
2018-03-29T08:44:29.656Z,95.60
2018-03-29T08:46:58.811Z,95.20
2018-03-29T08:49:27.095Z,94.90
2018-03-29T08:51:55.436Z,95.50
2018-03-29T08:54:26.650Z,95.40
2018-03-29T08:56:54.956Z,95.40
2018-03-29T08:59:23.211Z,95.20
2018-03-29T09:01:51.544Z,95.20
2018-03-29T09:04:19.841Z,95.30
2018-03-29T09:06:48.890Z,94.10
2018-03-29T09:09:17.159Z,94.10
2018-03-29T09:11:45.586Z,94.20
2018-03-29T09:14:14.640Z,93.80
2018-03-29T09:16:42.919Z,93.70
2018-03-29T09:19:11.991Z,92.60
2018-03-29T09:21:40.554Z,91.90
2018-03-29T09:24:08.877Z,91.50
2018-03-29T09:26:37.151Z,92.30
2018-03-29T09:29:05.925Z,91.90
2018-03-29T09:31:34.238Z,91.80
2018-03-29T09:34:02.521Z,92.10
2018-03-29T09:36:30.958Z,90.60
2018-03-29T09:38:59.264Z,90.20
2018-03-29T09:41:27.722Z,91.40
2018-03-29T09:43:56.301Z,90.80
2018-03-29T09:46:24.659Z,90.90
2018-03-29T09:48:52.950Z,90.30
2018-03-29T09:51:21.210Z,90.20
2018-03-29T09:53:49.470Z,90.60
2018-03-29T09:56:17.782Z,90.50
2018-03-29T09:58:46.169Z,90.80
2018-03-29T10:01:14.444Z,90.50
2018-03-29T10:06:42.324Z,90.80
2018-03-29T10:09:10.571Z,90.20
2018-03-29T10:11:38.905Z,89.10
2018-03-29T10:14:07.172Z,89.60
2018-03-29T10:16:35.513Z,88.20
2018-03-29T10:19:03.814Z,87.70
2018-03-29T10:21:32.853Z,88.60
2018-03-29T10:24:01.898Z,87.80
2018-03-29T10:26:30.842Z,87.70
2018-03-29T10:28:59.103Z,88.20
2018-03-29T10:31:28.260Z,86.10
2018-03-29T10:33:57.187Z,86.50
2018-03-29T10:36:25.465Z,87.40
2018-03-29T10:38:53.754Z,87.80
2018-03-29T10:41:22.759Z,86.50
2018-03-29T10:43:52.828Z,85.50
2018-03-29T10:46:21.126Z,85.40
2018-03-29T10:48:51.209Z,80.50
2018-03-29T10:51:19.518Z,80.40
2018-03-29T10:53:47.857Z,83.20
2018-03-29T10:56:16.143Z,80.90
2018-03-29T10:58:44.421Z,82.00
2018-03-29T11:01:12.689Z,80.50
2018-03-29T11:03:41.656Z,80.60
2018-03-29T11:06:10.734Z,79.40
2018-03-29T11:08:39.766Z,81.10
2018-03-29T11:11:08.031Z,81.00
2018-03-29T11:13:36.355Z,82.30
2018-03-29T11:16:04.695Z,82.20
2018-03-29T11:18:32.972Z,82.60
2018-03-29T11:21:01.278Z,81.40
2018-03-29T11:23:29.564Z,82.50
2018-03-29T11:25:57.822Z,83.80
2018-03-29T11:28:26.191Z,83.60
2018-03-29T11:30:54.477Z,85.20
2018-03-29T11:33:23.564Z,89.00
2018-03-29T11:35:51.869Z,88.40
2018-03-29T11:38:20.129Z,87.80
2018-03-29T11:40:48.508Z,84.30
2018-03-29T11:43:16.917Z,82.40
2018-03-29T11:45:45.230Z,81.30
2018-03-29T11:48:13.685Z,82.30
2018-03-29T11:50:42.819Z,84.60
2018-03-29T11:53:11.134Z,84.70
2018-03-29T11:55:39.487Z,83.70
2018-03-29T11:58:07.782Z,84.10
2018-03-29T12:00:36.039Z,82.00
2018-03-29T12:03:04.611Z,81.20
2018-03-29T12:05:33.667Z,78.10
2018-03-29T12:08:02.084Z,78.70
2018-03-29T12:10:30.492Z,79.30
2018-03-29T12:12:59.329Z,80.10
2018-03-29T12:15:27.594Z,79.70
2018-03-29T12:17:55.901Z,73.70
2018-03-29T12:20:24.196Z,75.40
2018-03-29T12:22:52.482Z,73.00
2018-03-29T12:25:20.847Z,72.20
2018-03-29T12:27:49.107Z,74.30
2018-03-29T12:30:17.390Z,71.50
2018-03-29T12:32:46.694Z,70.40
2018-03-29T12:35:15.190Z,71.60
2018-03-29T12:37:43.448Z,72.00
2018-03-29T12:40:11.711Z,73.00
2018-03-29T12:42:40.024Z,70.60
2018-03-29T12:45:08.364Z,70.00
2018-03-29T12:47:37.369Z,73.40
2018-03-29T12:50:05.756Z,73.40
2018-03-29T12:52:34.090Z,72.70
2018-03-29T12:55:15.536Z,72.60
2018-03-29T12:58:06.619Z,72.40
2018-03-29T13:00:35.236Z,74.20
2018-03-29T13:03:03.594Z,77.40
2018-03-29T13:05:31.896Z,80.30
2018-03-29T13:08:00.787Z,88.20
2018-03-29T13:10:29.142Z,90.90
2018-03-29T13:12:57.530Z,89.50
2018-03-29T13:15:25.791Z,89.60
2018-03-29T13:17:54.100Z,85.90
2018-03-29T13:20:22.448Z,85.50
2018-03-29T13:22:51.507Z,82.60
2018-03-29T13:25:19.778Z,79.80
2018-03-29T13:27:48.814Z,76.10
2018-03-29T13:30:17.084Z,77.60
2018-03-29T13:32:45.369Z,72.60
2018-03-29T13:35:13.639Z,71.10
2018-03-29T13:37:41.889Z,71.60
2018-03-29T13:40:10.312Z,70.10
2018-03-29T13:42:38.569Z,69.00
2018-03-29T13:45:06.866Z,71.60
2018-03-29T13:47:35.144Z,68.50
2018-03-29T13:50:03.477Z,69.80
2018-03-29T13:52:31.733Z,69.80
2018-03-29T13:55:00.058Z,67.60
2018-03-29T13:57:28.332Z,67.80
2018-03-29T13:59:56.658Z,68.80
2018-03-29T14:02:25.693Z,64.20
2018-03-29T14:04:53.973Z,64.20
2018-03-29T14:07:22.235Z,66.40
2018-03-29T14:09:50.540Z,67.50
2018-03-29T14:12:18.823Z,65.00
2018-03-29T14:14:47.145Z,59.10
2018-03-29T14:17:16.175Z,63.80
2018-03-29T14:19:45.138Z,63.90
2018-03-29T14:22:13.456Z,65.90
2018-03-29T14:24:41.771Z,74.90
2018-03-29T14:27:10.205Z,81.00
2018-03-29T14:29:38.468Z,86.70
2018-03-29T14:32:06.723Z,90.40
2018-03-29T14:46:32.461Z,91.90
2018-03-29T14:49:00.704Z,92.30
2018-03-29T14:51:29.109Z,92.60
2018-03-29T14:53:57.375Z,91.80
2018-03-29T14:56:25.632Z,93.30
2018-03-29T16:08:45.774Z,86.50
2018-03-29T16:11:14.155Z,86.80
2018-03-29T16:13:42.798Z,89.40
2018-03-29T16:16:11.053Z,90.00
2018-03-29T16:18:39.349Z,85.50
2018-03-29T16:36:03.893Z,82.20
2018-03-29T16:38:32.670Z,87.10
2018-03-29T16:41:00.944Z,90.90
2018-03-29T17:25:42.189Z,97.20
2018-03-29T17:28:10.846Z,97.60
2018-03-29T17:30:39.137Z,97.20
2018-03-29T17:33:08.171Z,96.90
2018-03-29T17:35:36.423Z,96.90
2018-03-29T17:38:04.694Z,96.90
2018-03-29T17:40:33.744Z,97.00
2018-03-29T17:43:02.023Z,97.00
2018-03-29T17:45:30.415Z,97.30
2018-03-29T17:47:58.675Z,97.10
2018-03-29T17:50:26.932Z,97.30
2018-03-29T17:52:55.187Z,97.50
2018-03-29T17:55:23.471Z,97.30
2018-03-29T17:57:51.728Z,97.40
2018-03-29T18:00:19.997Z,97.60
2018-03-29T18:02:48.254Z,97.90
2018-03-29T18:05:16.559Z,98.00
2018-03-29T18:07:44.901Z,98.00
2018-03-29T18:10:13.191Z,98.20
2018-03-29T18:12:42.216Z,98.20
2018-03-29T18:15:10.468Z,98.20
2018-03-29T18:17:39.514Z,98.30
2018-03-29T18:20:07.774Z,98.30
2018-03-29T18:22:36.020Z,98.20
2018-03-29T18:25:05.070Z,98.20
2018-03-29T18:27:33.312Z,98.10
2018-03-29T18:30:01.561Z,98.30
2018-03-29T18:32:30.808Z,98.50
2018-03-29T18:34:59.160Z,98.20
2018-03-29T18:37:27.427Z,98.50
2018-03-29T18:39:55.675Z,98.70
2018-03-29T18:42:23.928Z,98.70
2018-03-29T18:44:52.192Z,98.80
2018-03-29T18:47:20.425Z,98.50
2018-03-29T18:49:48.675Z,98.80
2018-03-29T18:52:16.946Z,99.20
2018-03-29T18:54:45.292Z,99.40
2018-03-29T18:57:13.543Z,99.80
2018-03-29T18:59:41.803Z,99.80
2018-03-29T19:02:10.820Z,99.80
2018-03-29T19:04:39.104Z,99.80
2018-03-29T23:04:49.781Z,99.90
2018-03-29T23:07:18.048Z,99.90
2018-03-29T23:18:43.948Z,99.90
2018-03-29T23:21:13.326Z,99.90
2018-03-29T23:23:41.586Z,99.90
2018-03-29T23:26:09.854Z,99.90
2018-03-29T23:28:38.494Z,99.90
2018-03-29T23:31:07.539Z,99.90
2018-03-29T23:33:35.798Z,99.90
2018-03-29T23:36:04.058Z,99.90
2018-03-29T23:38:32.312Z,99.90
2018-03-29T23:41:01.338Z,99.90
2018-03-29T23:43:29.605Z,99.90
2018-03-29T23:45:57.867Z,99.90
2018-03-29T23:48:26.905Z,99.90
2018-03-29T23:50:55.167Z,99.90
2018-03-29T23:53:23.434Z,99.90
2018-03-29T23:55:52.615Z,99.90
2018-03-29T23:58:21.645Z,99.90
